sensor_id;sensor_type;location;lat;lon;timestamp;temperature;humidity
53904;DHT22;39812;52.430;16.936;2023-10-19T00:02:08;3.60;99.90
53904;DHT22;39812;52.430;16.936;2023-10-19T00:04:33;3.60;99.90
53904;DHT22;39812;52.430;16.936;2023-10-19T00:07:02;3.60;99.90
53904;DHT22;39812;52.430;16.936;2023-10-19T00:09:30;3.70;99.90
53904;DHT22;39812;52.430;16.936;2023-10-19T00:12:02;3.70;99.90
53904;DHT22;39812;52.430;16.936;2023-10-19T00:14:28;3.70;99.90
53904;DHT22;39812;52.430;16.936;2023-10-19T00:16:54;3.70;99.90
53904;DHT22;39812;52.430;16.936;2023-10-19T00:19:25;3.80;99.90
53904;DHT22;39812;52.430;16.936;2023-10-19T00:21:54;3.80;99.90
53904;DHT22;39812;52.430;16.936;2023-10-19T00:24:33;3.80;99.90
53904;DHT22;39812;52.430;16.936;2023-10-19T00:26:59;3.80;99.90
53904;DHT22;39812;52.430;16.936;2023-10-19T00:29:31;3.80;99.90
53904;DHT22;39812;52.430;16.936;2023-10-19T00:31:59;3.80;99.90
53904;DHT22;39812;52.430;16.936;2023-10-19T00:34:26;3.80;99.90
53904;DHT22;39812;52.430;16.936;2023-10-19T00:36:54;3.80;99.90
53904;DHT22;39812;52.430;16.936;2023-10-19T00:39:22;3.80;99.90
53904;DHT22;39812;52.430;16.936;2023-10-19T00:41:48;3.80;99.90
53904;DHT22;39812;52.430;16.936;2023-10-19T00:44:14;3.80;99.90
53904;DHT22;39812;52.430;16.936;2023-10-19T00:46:54;3.70;99.90
53904;DHT22;39812;52.430;16.936;2023-10-19T00:49:30;3.70;99.90
53904;DHT22;39812;52.430;16.936;2023-10-19T00:51:58;3.70;99.90
53904;DHT22;39812;52.430;16.936;2023-10-19T00:54:34;3.70;99.90
53904;DHT22;39812;52.430;16.936;2023-10-19T00:57:04;3.80;99.90
53904;DHT22;39812;52.430;16.936;2023-10-19T00:59:40;3.70;99.90
53904;DHT22;39812;52.430;16.936;2023-10-19T01:02:19;3.70;99.90
53904;DHT22;39812;52.430;16.936;2023-10-19T01:04:53;3.60;99.90
53904;DHT22;39812;52.430;16.936;2023-10-19T01:07:23;3.60;99.90
53904;DHT22;39812;52.430;16.936;2023-10-19T01:09:52;3.50;99.90
53904;DHT22;39812;52.430;16.936;2023-10-19T01:12:25;3.50;99.90
53904;DHT22;39812;52.430;16.936;2023-10-19T01:15:10;3.50;99.90
53904;DHT22;39812;52.430;16.936;2023-10-19T01:17:43;3.50;99.90
53904;DHT22;39812;52.430;16.936;2023-10-19T01:20:12;3.40;99.90
53904;DHT22;39812;52.430;16.936;2023-10-19T01:23:03;3.50;99.90
53904;DHT22;39812;52.430;16.936;2023-10-19T01:25:42;3.60;99.90
53904;DHT22;39812;52.430;16.936;2023-10-19T01:28:51;3.50;99.90
53904;DHT22;39812;52.430;16.936;2023-10-19T01:31:22;3.60;99.90
53904;DHT22;39812;52.430;16.936;2023-10-19T01:33:56;3.50;99.90
53904;DHT22;39812;52.430;16.936;2023-10-19T01:36:23;3.70;99.90
53904;DHT22;39812;52.430;16.936;2023-10-19T01:38:50;3.60;99.90
53904;DHT22;39812;52.430;16.936;2023-10-19T01:41:20;3.70;99.90
53904;DHT22;39812;52.430;16.936;2023-10-19T01:43:48;3.70;99.90
53904;DHT22;39812;52.430;16.936;2023-10-19T01:46:17;3.70;99.90
53904;DHT22;39812;52.430;16.936;2023-10-19T01:49:02;3.80;99.90
53904;DHT22;39812;52.430;16.936;2023-10-19T01:51:30;3.80;99.90
53904;DHT22;39812;52.430;16.936;2023-10-19T01:53:58;3.80;99.90
53904;DHT22;39812;52.430;16.936;2023-10-19T01:56:26;3.90;99.90
53904;DHT22;39812;52.430;16.936;2023-10-19T01:58:52;3.90;99.90
53904;DHT22;39812;52.430;16.936;2023-10-19T02:01:18;3.90;99.90
53904;DHT22;39812;52.430;16.936;2023-10-19T02:03:54;4.00;99.90
53904;DHT22;39812;52.430;16.936;2023-10-19T02:06:23;4.00;99.90
53904;DHT22;39812;52.430;16.936;2023-10-19T02:09:08;4.00;99.90
53904;DHT22;39812;52.430;16.936;2023-10-19T02:11:35;4.10;99.90
53904;DHT22;39812;52.430;16.936;2023-10-19T02:14:07;4.20;99.90
53904;DHT22;39812;52.430;16.936;2023-10-19T02:16:40;4.20;99.90
53904;DHT22;39812;52.430;16.936;2023-10-19T02:19:06;4.20;99.90
53904;DHT22;39812;52.430;16.936;2023-10-19T02:21:32;4.20;99.90
53904;DHT22;39812;52.430;16.936;2023-10-19T02:24:03;4.30;99.90
53904;DHT22;39812;52.430;16.936;2023-10-19T02:26:29;4.30;99.90
53904;DHT22;39812;52.430;16.936;2023-10-19T02:28:56;4.50;99.90
53904;DHT22;39812;52.430;16.936;2023-10-19T02:31:23;4.50;99.90
53904;DHT22;39812;52.430;16.936;2023-10-19T02:33:54;4.50;99.90
53904;DHT22;39812;52.430;16.936;2023-10-19T02:36:30;4.50;99.90
53904;DHT22;39812;52.430;16.936;2023-10-19T02:39:01;4.50;99.90
53904;DHT22;39812;52.430;16.936;2023-10-19T02:41:34;4.40;99.90
53904;DHT22;39812;52.430;16.936;2023-10-19T02:44:09;4.40;99.90
53904;DHT22;39812;52.430;16.936;2023-10-19T02:46:38;4.40;99.90
53904;DHT22;39812;52.430;16.936;2023-10-19T02:49:08;4.50;99.90
53904;DHT22;39812;52.430;16.936;2023-10-19T02:51:42;4.50;99.90
53904;DHT22;39812;52.430;16.936;2023-10-19T02:54:12;4.50;99.90
53904;DHT22;39812;52.430;16.936;2023-10-19T02:56:44;4.60;99.90
53904;DHT22;39812;52.430;16.936;2023-10-19T02:59:14;4.60;99.90
53904;DHT22;39812;52.430;16.936;2023-10-19T03:01:41;4.70;99.90
53904;DHT22;39812;52.430;16.936;2023-10-19T03:04:10;4.70;99.90
53904;DHT22;39812;52.430;16.936;2023-10-19T03:06:38;4.70;99.90
53904;DHT22;39812;52.430;16.936;2023-10-19T03:09:06;4.80;99.90
53904;DHT22;39812;52.430;16.936;2023-10-19T03:11:50;4.80;99.90
53904;DHT22;39812;52.430;16.936;2023-10-19T03:14:20;4.70;99.90
53904;DHT22;39812;52.430;16.936;2023-10-19T03:16:50;4.80;99.90
53904;DHT22;39812;52.430;16.936;2023-10-19T03:19:16;4.80;99.90
53904;DHT22;39812;52.430;16.936;2023-10-19T03:21:41;4.80;99.90
53904;DHT22;39812;52.430;16.936;2023-10-19T03:24:14;4.80;99.90
53904;DHT22;39812;52.430;16.936;2023-10-19T03:26:59;4.90;99.90
53904;DHT22;39812;52.430;16.936;2023-10-19T03:29:25;5.00;99.90
53904;DHT22;39812;52.430;16.936;2023-10-19T03:31:58;4.90;99.90
53904;DHT22;39812;52.430;16.936;2023-10-19T03:34:27;4.90;99.90
53904;DHT22;39812;52.430;16.936;2023-10-19T03:36:52;5.00;99.90
53904;DHT22;39812;52.430;16.936;2023-10-19T03:39:18;5.00;99.90
53904;DHT22;39812;52.430;16.936;2023-10-19T03:41:44;5.00;99.90
53904;DHT22;39812;52.430;16.936;2023-10-19T03:44:13;5.00;99.90
53904;DHT22;39812;52.430;16.936;2023-10-19T03:46:50;5.00;99.90
53904;DHT22;39812;52.430;16.936;2023-10-19T03:49:19;5.00;99.90
53904;DHT22;39812;52.430;16.936;2023-10-19T03:51:46;4.90;99.90
53904;DHT22;39812;52.430;16.936;2023-10-19T03:54:25;4.90;99.90
53904;DHT22;39812;52.430;16.936;2023-10-19T03:56:53;4.90;99.90
53904;DHT22;39812;52.430;16.936;2023-10-19T03:59:19;4.90;99.90
53904;DHT22;39812;52.430;16.936;2023-10-19T04:01:48;4.90;99.90
53904;DHT22;39812;52.430;16.936;2023-10-19T04:04:14;4.90;99.90
53904;DHT22;39812;52.430;16.936;2023-10-19T04:06:42;5.00;99.90
53904;DHT22;39812;52.430;16.936;2023-10-19T04:09:13;5.10;99.90
53904;DHT22;39812;52.430;16.936;2023-10-19T04:11:42;5.10;99.90
53904;DHT22;39812;52.430;16.936;2023-10-19T04:14:15;5.30;99.90
53904;DHT22;39812;52.430;16.936;2023-10-19T04:16:41;5.30;99.90
53904;DHT22;39812;52.430;16.936;2023-10-19T04:19:10;5.30;99.90
53904;DHT22;39812;52.430;16.936;2023-10-19T04:21:37;5.30;99.90
53904;DHT22;39812;52.430;16.936;2023-10-19T04:24:07;5.20;99.90
53904;DHT22;39812;52.430;16.936;2023-10-19T04:26:34;5.20;99.90
53904;DHT22;39812;52.430;16.936;2023-10-19T04:29:04;5.20;99.90
53904;DHT22;39812;52.430;16.936;2023-10-19T04:31:39;5.20;99.90
53904;DHT22;39812;52.430;16.936;2023-10-19T04:34:20;5.30;99.90
53904;DHT22;39812;52.430;16.936;2023-10-19T04:36:47;5.40;99.90
53904;DHT22;39812;52.430;16.936;2023-10-19T04:39:13;5.40;99.90
53904;DHT22;39812;52.430;16.936;2023-10-19T04:41:39;5.50;99.90
53904;DHT22;39812;52.430;16.936;2023-10-19T04:44:05;5.40;99.90
53904;DHT22;39812;52.430;16.936;2023-10-19T04:46:33;5.40;99.90
53904;DHT22;39812;52.430;16.936;2023-10-19T04:48:59;5.40;99.90
53904;DHT22;39812;52.430;16.936;2023-10-19T04:51:25;5.40;99.90
53904;DHT22;39812;52.430;16.936;2023-10-19T04:53:50;5.40;99.90
53904;DHT22;39812;52.430;16.936;2023-10-19T04:56:16;5.40;99.90
53904;DHT22;39812;52.430;16.936;2023-10-19T04:58:41;5.30;99.90
53904;DHT22;39812;52.430;16.936;2023-10-19T05:01:07;5.30;99.90
53904;DHT22;39812;52.430;16.936;2023-10-19T05:03:33;5.30;99.90
53904;DHT22;39812;52.430;16.936;2023-10-19T05:05:59;5.30;99.90
53904;DHT22;39812;52.430;16.936;2023-10-19T05:08:26;5.30;99.90
53904;DHT22;39812;52.430;16.936;2023-10-19T05:10:54;5.30;99.90
53904;DHT22;39812;52.430;16.936;2023-10-19T05:13:21;5.30;99.90
53904;DHT22;39812;52.430;16.936;2023-10-19T05:15:46;5.30;99.90
53904;DHT22;39812;52.430;16.936;2023-10-19T05:18:12;5.30;99.90
53904;DHT22;39812;52.430;16.936;2023-10-19T05:20:38;5.30;99.90
53904;DHT22;39812;52.430;16.936;2023-10-19T05:23:08;5.30;99.90
53904;DHT22;39812;52.430;16.936;2023-10-19T05:25:35;5.30;99.90
53904;DHT22;39812;52.430;16.936;2023-10-19T05:28:05;5.30;99.90
53904;DHT22;39812;52.430;16.936;2023-10-19T05:30:32;5.30;99.90
53904;DHT22;39812;52.430;16.936;2023-10-19T05:32:58;5.30;99.90
53904;DHT22;39812;52.430;16.936;2023-10-19T05:35:25;5.40;99.90
53904;DHT22;39812;52.430;16.936;2023-10-19T05:37:52;5.40;99.90
53904;DHT22;39812;52.430;16.936;2023-10-19T05:40:18;5.30;99.90
53904;DHT22;39812;52.430;16.936;2023-10-19T05:42:44;5.40;99.90
53904;DHT22;39812;52.430;16.936;2023-10-19T05:45:11;5.40;99.90
53904;DHT22;39812;52.430;16.936;2023-10-19T05:47:42;5.40;99.90
53904;DHT22;39812;52.430;16.936;2023-10-19T05:50:09;5.40;99.90
53904;DHT22;39812;52.430;16.936;2023-10-19T05:52:43;5.50;99.90
53904;DHT22;39812;52.430;16.936;2023-10-19T05:55:12;5.50;99.90
53904;DHT22;39812;52.430;16.936;2023-10-19T05:57:38;5.50;99.90
53904;DHT22;39812;52.430;16.936;2023-10-19T06:00:08;5.60;99.90
53904;DHT22;39812;52.430;16.936;2023-10-19T06:02:39;5.60;99.90
53904;DHT22;39812;52.430;16.936;2023-10-19T06:05:04;5.70;99.90
53904;DHT22;39812;52.430;16.936;2023-10-19T06:07:31;5.70;99.90
53904;DHT22;39812;52.430;16.936;2023-10-19T06:09:56;5.80;99.90
53904;DHT22;39812;52.430;16.936;2023-10-19T06:12:22;5.90;99.90
53904;DHT22;39812;52.430;16.936;2023-10-19T06:14:48;5.90;99.90
53904;DHT22;39812;52.430;16.936;2023-10-19T06:17:13;6.00;99.90
53904;DHT22;39812;52.430;16.936;2023-10-19T06:19:44;6.00;99.90
53904;DHT22;39812;52.430;16.936;2023-10-19T06:22:11;6.10;99.90
53904;DHT22;39812;52.430;16.936;2023-10-19T06:24:38;6.20;99.90
53904;DHT22;39812;52.430;16.936;2023-10-19T06:27:03;6.40;99.90
53904;DHT22;39812;52.430;16.936;2023-10-19T06:29:29;6.40;99.40
53904;DHT22;39812;52.430;16.936;2023-10-19T06:31:55;6.40;99.50
53904;DHT22;39812;52.430;16.936;2023-10-19T06:34:20;6.50;99.40
53904;DHT22;39812;52.430;16.936;2023-10-19T06:36:46;6.50;99.30
53904;DHT22;39812;52.430;16.936;2023-10-19T06:39:12;6.50;99.30
53904;DHT22;39812;52.430;16.936;2023-10-19T06:41:39;6.50;99.30
53904;DHT22;39812;52.430;16.936;2023-10-19T06:44:05;6.50;99.10
53904;DHT22;39812;52.430;16.936;2023-10-19T06:46:31;6.50;99.20
53904;DHT22;39812;52.430;16.936;2023-10-19T06:48:57;6.50;99.40
53904;DHT22;39812;52.430;16.936;2023-10-19T06:51:26;6.50;99.30
53904;DHT22;39812;52.430;16.936;2023-10-19T06:53:52;6.60;99.20
53904;DHT22;39812;52.430;16.936;2023-10-19T06:56:18;6.60;99.00
53904;DHT22;39812;52.430;16.936;2023-10-19T06:58:44;6.60;99.00
53904;DHT22;39812;52.430;16.936;2023-10-19T07:01:09;6.80;98.80
53904;DHT22;39812;52.430;16.936;2023-10-19T07:03:36;6.90;98.50
53904;DHT22;39812;52.430;16.936;2023-10-19T07:06:02;7.00;98.50
53904;DHT22;39812;52.430;16.936;2023-10-19T07:08:29;7.20;98.00
53904;DHT22;39812;52.430;16.936;2023-10-19T07:10:55;7.30;97.80
53904;DHT22;39812;52.430;16.936;2023-10-19T07:13:21;7.30;97.50
53904;DHT22;39812;52.430;16.936;2023-10-19T07:15:48;7.40;97.20
53904;DHT22;39812;52.430;16.936;2023-10-19T07:18:14;7.40;97.40
53904;DHT22;39812;52.430;16.936;2023-10-19T07:20:40;7.50;97.20
53904;DHT22;39812;52.430;16.936;2023-10-19T07:23:08;7.70;96.90
53904;DHT22;39812;52.430;16.936;2023-10-19T07:25:53;7.80;96.60
53904;DHT22;39812;52.430;16.936;2023-10-19T07:28:25;7.90;96.20
53904;DHT22;39812;52.430;16.936;2023-10-19T07:30:52;8.00;96.00
53904;DHT22;39812;52.430;16.936;2023-10-19T07:33:18;8.20;95.80
53904;DHT22;39812;52.430;16.936;2023-10-19T07:35:46;8.10;95.40
53904;DHT22;39812;52.430;16.936;2023-10-19T07:38:15;8.30;95.20
53904;DHT22;39812;52.430;16.936;2023-10-19T07:40:43;8.40;95.20
53904;DHT22;39812;52.430;16.936;2023-10-19T07:43:09;8.40;94.90
53904;DHT22;39812;52.430;16.936;2023-10-19T07:45:35;8.40;94.70
53904;DHT22;39812;52.430;16.936;2023-10-19T07:48:03;8.30;94.80
53904;DHT22;39812;52.430;16.936;2023-10-19T07:50:35;8.30;94.80
53904;DHT22;39812;52.430;16.936;2023-10-19T07:53:01;8.30;94.60
53904;DHT22;39812;52.430;16.936;2023-10-19T07:55:27;8.40;94.60
53904;DHT22;39812;52.430;16.936;2023-10-19T07:57:53;8.30;94.60
53904;DHT22;39812;52.430;16.936;2023-10-19T08:00:20;8.30;94.60
53904;DHT22;39812;52.430;16.936;2023-10-19T08:02:46;8.30;94.70
53904;DHT22;39812;52.430;16.936;2023-10-19T08:05:17;8.30;94.50
53904;DHT22;39812;52.430;16.936;2023-10-19T08:07:46;8.50;94.40
53904;DHT22;39812;52.430;16.936;2023-10-19T08:10:16;8.50;94.40
53904;DHT22;39812;52.430;16.936;2023-10-19T08:12:43;8.40;94.30
53904;DHT22;39812;52.430;16.936;2023-10-19T08:15:11;8.40;94.40
53904;DHT22;39812;52.430;16.936;2023-10-19T08:17:40;8.50;94.30
53904;DHT22;39812;52.430;16.936;2023-10-19T08:20:07;8.50;94.20
53904;DHT22;39812;52.430;16.936;2023-10-19T08:22:38;8.60;94.10
53904;DHT22;39812;52.430;16.936;2023-10-19T08:25:04;8.60;93.90
53904;DHT22;39812;52.430;16.936;2023-10-19T08:27:40;8.70;94.00
53904;DHT22;39812;52.430;16.936;2023-10-19T08:30:10;8.70;93.80
53904;DHT22;39812;52.430;16.936;2023-10-19T08:32:39;8.70;93.80
53904;DHT22;39812;52.430;16.936;2023-10-19T08:35:05;8.80;93.80
53904;DHT22;39812;52.430;16.936;2023-10-19T08:37:31;8.70;93.80
53904;DHT22;39812;52.430;16.936;2023-10-19T08:39:57;8.80;93.70
53904;DHT22;39812;52.430;16.936;2023-10-19T08:42:23;9.00;93.50
53904;DHT22;39812;52.430;16.936;2023-10-19T08:44:50;9.00;93.50
53904;DHT22;39812;52.430;16.936;2023-10-19T08:47:16;9.10;93.60
53904;DHT22;39812;52.430;16.936;2023-10-19T08:49:42;9.20;93.30
53904;DHT22;39812;52.430;16.936;2023-10-19T08:52:08;9.30;93.10
53904;DHT22;39812;52.430;16.936;2023-10-19T08:54:34;9.50;92.60
53904;DHT22;39812;52.430;16.936;2023-10-19T08:57:00;9.40;92.60
53904;DHT22;39812;52.430;16.936;2023-10-19T08:59:26;9.60;92.50
53904;DHT22;39812;52.430;16.936;2023-10-19T09:02:11;9.80;92.20
53904;DHT22;39812;52.430;16.936;2023-10-19T09:04:43;10.00;91.80
53904;DHT22;39812;52.430;16.936;2023-10-19T09:07:09;10.10;91.60
53904;DHT22;39812;52.430;16.936;2023-10-19T09:09:36;10.20;91.50
53904;DHT22;39812;52.430;16.936;2023-10-19T09:12:07;10.30;91.20
53904;DHT22;39812;52.430;16.936;2023-10-19T09:14:35;10.50;91.10
53904;DHT22;39812;52.430;16.936;2023-10-19T09:17:08;10.50;90.80
53904;DHT22;39812;52.430;16.936;2023-10-19T09:19:39;10.50;90.70
53904;DHT22;39812;52.430;16.936;2023-10-19T09:22:07;10.60;90.30
53904;DHT22;39812;52.430;16.936;2023-10-19T09:24:45;10.60;90.50
53904;DHT22;39812;52.430;16.936;2023-10-19T09:27:12;10.70;90.30
53904;DHT22;39812;52.430;16.936;2023-10-19T09:29:39;10.40;90.20
53904;DHT22;39812;52.430;16.936;2023-10-19T09:32:07;10.20;90.40
53904;DHT22;39812;52.430;16.936;2023-10-19T09:34:33;10.10;90.60
53904;DHT22;39812;52.430;16.936;2023-10-19T09:37:00;10.00;91.00
53904;DHT22;39812;52.430;16.936;2023-10-19T09:39:29;10.00;91.10
53904;DHT22;39812;52.430;16.936;2023-10-19T09:42:09;9.90;91.20
53904;DHT22;39812;52.430;16.936;2023-10-19T09:44:55;9.90;91.20
53904;DHT22;39812;52.430;16.936;2023-10-19T09:47:27;10.00;90.80
53904;DHT22;39812;52.430;16.936;2023-10-19T09:49:56;10.00;90.80
53904;DHT22;39812;52.430;16.936;2023-10-19T09:52:23;10.00;90.90
53904;DHT22;39812;52.430;16.936;2023-10-19T09:54:59;9.80;90.90
53904;DHT22;39812;52.430;16.936;2023-10-19T09:57:36;9.80;91.10
53904;DHT22;39812;52.430;16.936;2023-10-19T10:00:04;9.70;91.10
53904;DHT22;39812;52.430;16.936;2023-10-19T10:02:43;9.70;91.20
53904;DHT22;39812;52.430;16.936;2023-10-19T10:10:43;9.70;91.10
53904;DHT22;39812;52.430;16.936;2023-10-19T10:13:38;9.70;91.20
53904;DHT22;39812;52.430;16.936;2023-10-19T10:16:04;9.70;91.10
53904;DHT22;39812;52.430;16.936;2023-10-19T10:18:32;9.80;91.00
53904;DHT22;39812;52.430;16.936;2023-10-19T10:23:44;9.80;90.80
53904;DHT22;39812;52.430;16.936;2023-10-19T10:26:14;9.80;90.90
53904;DHT22;39812;52.430;16.936;2023-10-19T10:28:41;9.90;90.70
53904;DHT22;39812;52.430;16.936;2023-10-19T10:31:11;9.90;90.70
53904;DHT22;39812;52.430;16.936;2023-10-19T10:33:43;9.80;90.90
53904;DHT22;39812;52.430;16.936;2023-10-19T10:36:14;10.00;90.70
53904;DHT22;39812;52.430;16.936;2023-10-19T10:38:40;10.00;90.60
53904;DHT22;39812;52.430;16.936;2023-10-19T10:41:06;10.00;90.70
53904;DHT22;39812;52.430;16.936;2023-10-19T10:43:49;9.90;90.70
53904;DHT22;39812;52.430;16.936;2023-10-19T10:46:18;10.00;90.70
53904;DHT22;39812;52.430;16.936;2023-10-19T10:48:44;10.10;90.50
53904;DHT22;39812;52.430;16.936;2023-10-19T10:51:20;10.10;90.40
53904;DHT22;39812;52.430;16.936;2023-10-19T10:53:48;10.20;90.10
53904;DHT22;39812;52.430;16.936;2023-10-19T10:56:14;10.20;90.30
53904;DHT22;39812;52.430;16.936;2023-10-19T10:58:40;10.10;90.50
53904;DHT22;39812;52.430;16.936;2023-10-19T11:01:06;10.10;90.30
53904;DHT22;39812;52.430;16.936;2023-10-19T11:03:32;10.20;90.40
53904;DHT22;39812;52.430;16.936;2023-10-19T11:06:05;10.20;90.40
53904;DHT22;39812;52.430;16.936;2023-10-19T11:08:33;10.30;90.20
53904;DHT22;39812;52.430;16.936;2023-10-19T11:11:07;10.30;90.20
53904;DHT22;39812;52.430;16.936;2023-10-19T11:13:36;10.30;90.10
53904;DHT22;39812;52.430;16.936;2023-10-19T11:16:05;10.40;90.10
53904;DHT22;39812;52.430;16.936;2023-10-19T11:18:36;10.50;90.10
53904;DHT22;39812;52.430;16.936;2023-10-19T11:21:05;10.40;90.10
53904;DHT22;39812;52.430;16.936;2023-10-19T11:26:02;10.40;90.20
53904;DHT22;39812;52.430;16.936;2023-10-19T11:28:31;10.30;90.20
53904;DHT22;39812;52.430;16.936;2023-10-19T11:31:20;10.30;90.20
53904;DHT22;39812;52.430;16.936;2023-10-19T11:33:53;10.20;90.20
53904;DHT22;39812;52.430;16.936;2023-10-19T11:36:21;10.10;90.50
53904;DHT22;39812;52.430;16.936;2023-10-19T11:38:49;10.20;90.60
53904;DHT22;39812;52.430;16.936;2023-10-19T11:41:15;10.40;90.30
53904;DHT22;39812;52.430;16.936;2023-10-19T11:43:43;10.50;90.10
53904;DHT22;39812;52.430;16.936;2023-10-19T11:46:10;10.50;90.00
53904;DHT22;39812;52.430;16.936;2023-10-19T11:48:37;10.40;90.20
53904;DHT22;39812;52.430;16.936;2023-10-19T11:51:05;10.50;90.10
53904;DHT22;39812;52.430;16.936;2023-10-19T11:53:35;10.60;90.00
53904;DHT22;39812;52.430;16.936;2023-10-19T11:56:06;10.70;89.40
53904;DHT22;39812;52.430;16.936;2023-10-19T11:58:36;10.80;89.10
53904;DHT22;39812;52.430;16.936;2023-10-19T12:01:03;10.80;89.40
53904;DHT22;39812;52.430;16.936;2023-10-19T12:03:32;11.00;88.90
53904;DHT22;39812;52.430;16.936;2023-10-19T12:06:00;10.70;89.10
53904;DHT22;39812;52.430;16.936;2023-10-19T12:08:29;10.70;89.60
53904;DHT22;39812;52.430;16.936;2023-10-19T12:10:55;10.70;89.60
53904;DHT22;39812;52.430;16.936;2023-10-19T12:13:20;10.60;89.80
53904;DHT22;39812;52.430;16.936;2023-10-19T12:15:46;10.50;90.00
53904;DHT22;39812;52.430;16.936;2023-10-19T12:18:18;10.50;90.10
53904;DHT22;39812;52.430;16.936;2023-10-19T12:20:44;10.60;90.10
53904;DHT22;39812;52.430;16.936;2023-10-19T12:23:11;10.60;90.10
53904;DHT22;39812;52.430;16.936;2023-10-19T12:25:37;10.60;90.50
53904;DHT22;39812;52.430;16.936;2023-10-19T12:28:04;10.60;90.10
53904;DHT22;39812;52.430;16.936;2023-10-19T12:30:30;10.70;89.90
53904;DHT22;39812;52.430;16.936;2023-10-19T12:33:02;10.70;90.00
53904;DHT22;39812;52.430;16.936;2023-10-19T12:35:33;10.80;90.00
53904;DHT22;39812;52.430;16.936;2023-10-19T12:38:15;10.80;89.80
53904;DHT22;39812;52.430;16.936;2023-10-19T12:40:45;10.90;89.80
53904;DHT22;39812;52.430;16.936;2023-10-19T12:43:12;10.90;89.80
53904;DHT22;39812;52.430;16.936;2023-10-19T12:45:39;11.10;88.90
53904;DHT22;39812;52.430;16.936;2023-10-19T12:48:05;11.10;88.90
53904;DHT22;39812;52.430;16.936;2023-10-19T12:50:32;11.10;88.90
53904;DHT22;39812;52.430;16.936;2023-10-19T12:52:59;11.00;89.30
53904;DHT22;39812;52.430;16.936;2023-10-19T12:55:26;11.00;89.50
53904;DHT22;39812;52.430;16.936;2023-10-19T12:57:56;10.80;89.70
53904;DHT22;39812;52.430;16.936;2023-10-19T13:00:23;10.60;90.20
53904;DHT22;39812;52.430;16.936;2023-10-19T13:03:03;10.50;90.50
53904;DHT22;39812;52.430;16.936;2023-10-19T13:05:36;10.50;90.50
53904;DHT22;39812;52.430;16.936;2023-10-19T13:08:05;10.40;90.50
53904;DHT22;39812;52.430;16.936;2023-10-19T13:10:32;10.30;90.50
53904;DHT22;39812;52.430;16.936;2023-10-19T13:13:03;10.30;90.60
53904;DHT22;39812;52.430;16.936;2023-10-19T13:15:34;10.20;90.80
53904;DHT22;39812;52.430;16.936;2023-10-19T13:18:01;10.30;90.80
53904;DHT22;39812;52.430;16.936;2023-10-19T13:20:28;10.30;90.90
53904;DHT22;39812;52.430;16.936;2023-10-19T13:23:02;10.30;91.00
53904;DHT22;39812;52.430;16.936;2023-10-19T13:25:31;10.20;91.10
53904;DHT22;39812;52.430;16.936;2023-10-19T13:28:13;10.10;91.30
53904;DHT22;39812;52.430;16.936;2023-10-19T13:30:41;9.90;91.50
53904;DHT22;39812;52.430;16.936;2023-10-19T13:33:08;10.00;91.50
53904;DHT22;39812;52.430;16.936;2023-10-19T13:35:39;10.00;91.50
53904;DHT22;39812;52.430;16.936;2023-10-19T13:38:05;10.00;91.60
53904;DHT22;39812;52.430;16.936;2023-10-19T13:40:32;10.00;91.70
53904;DHT22;39812;52.430;16.936;2023-10-19T13:42:58;9.90;91.90
53904;DHT22;39812;52.430;16.936;2023-10-19T13:45:24;9.80;91.90
53904;DHT22;39812;52.430;16.936;2023-10-19T13:47:50;9.70;92.00
53904;DHT22;39812;52.430;16.936;2023-10-19T13:50:21;9.70;92.20
53904;DHT22;39812;52.430;16.936;2023-10-19T13:52:50;9.70;92.30
53904;DHT22;39812;52.430;16.936;2023-10-19T13:55:15;9.70;92.40
53904;DHT22;39812;52.430;16.936;2023-10-19T13:57:44;9.70;92.40
53904;DHT22;39812;52.430;16.936;2023-10-19T14:00:12;9.70;92.50
53904;DHT22;39812;52.430;16.936;2023-10-19T14:02:45;9.60;92.60
53904;DHT22;39812;52.430;16.936;2023-10-19T14:05:11;9.70;92.60
53904;DHT22;39812;52.430;16.936;2023-10-19T14:07:36;9.60;92.70
53904;DHT22;39812;52.430;16.936;2023-10-19T14:10:06;9.60;92.90
53904;DHT22;39812;52.430;16.936;2023-10-19T14:12:32;9.60;92.70
53904;DHT22;39812;52.430;16.936;2023-10-19T14:14:58;9.50;92.90
53904;DHT22;39812;52.430;16.936;2023-10-19T14:17:23;9.50;92.90
53904;DHT22;39812;52.430;16.936;2023-10-19T14:19:50;9.50;93.00
53904;DHT22;39812;52.430;16.936;2023-10-19T14:22:16;9.60;92.80
53904;DHT22;39812;52.430;16.936;2023-10-19T14:24:43;9.50;92.90
53904;DHT22;39812;52.430;16.936;2023-10-19T14:27:10;9.40;93.10
53904;DHT22;39812;52.430;16.936;2023-10-19T14:29:36;9.40;93.20
53904;DHT22;39812;52.430;16.936;2023-10-19T14:32:01;9.40;93.30
53904;DHT22;39812;52.430;16.936;2023-10-19T14:34:28;9.30;93.20
53904;DHT22;39812;52.430;16.936;2023-10-19T14:36:54;9.30;93.30
53904;DHT22;39812;52.430;16.936;2023-10-19T14:39:20;9.40;93.30
53904;DHT22;39812;52.430;16.936;2023-10-19T14:41:46;9.30;93.20
53904;DHT22;39812;52.430;16.936;2023-10-19T14:44:11;9.40;93.20
53904;DHT22;39812;52.430;16.936;2023-10-19T14:46:37;9.30;93.20
53904;DHT22;39812;52.430;16.936;2023-10-19T14:49:03;9.30;93.30
53904;DHT22;39812;52.430;16.936;2023-10-19T14:51:28;9.30;93.40
53904;DHT22;39812;52.430;16.936;2023-10-19T14:53:54;9.30;93.40
53904;DHT22;39812;52.430;16.936;2023-10-19T14:56:20;9.30;93.40
53904;DHT22;39812;52.430;16.936;2023-10-19T14:58:46;9.20;93.50
53904;DHT22;39812;52.430;16.936;2023-10-19T15:01:12;9.20;93.70
53904;DHT22;39812;52.430;16.936;2023-10-19T15:03:42;9.10;94.30
53904;DHT22;39812;52.430;16.936;2023-10-19T15:06:08;9.00;94.20
53904;DHT22;39812;52.430;16.936;2023-10-19T15:08:34;9.00;94.30
53904;DHT22;39812;52.430;16.936;2023-10-19T15:10:59;9.00;94.30
53904;DHT22;39812;52.430;16.936;2023-10-19T15:13:25;9.00;94.70
53904;DHT22;39812;52.430;16.936;2023-10-19T15:15:51;8.90;95.00
53904;DHT22;39812;52.430;16.936;2023-10-19T15:18:17;8.80;95.30
53904;DHT22;39812;52.430;16.936;2023-10-19T15:20:43;8.80;95.70
53904;DHT22;39812;52.430;16.936;2023-10-19T15:23:09;8.70;95.80
53904;DHT22;39812;52.430;16.936;2023-10-19T15:25:36;8.70;96.10
53904;DHT22;39812;52.430;16.936;2023-10-19T15:28:02;8.60;96.30
53904;DHT22;39812;52.430;16.936;2023-10-19T15:30:28;8.50;96.80
53904;DHT22;39812;52.430;16.936;2023-10-19T15:32:54;8.50;97.10
53904;DHT22;39812;52.430;16.936;2023-10-19T15:35:20;8.50;97.30
53904;DHT22;39812;52.430;16.936;2023-10-19T15:37:49;8.50;97.60
53904;DHT22;39812;52.430;16.936;2023-10-19T15:40:16;8.40;97.70
53904;DHT22;39812;52.430;16.936;2023-10-19T15:42:43;8.40;98.00
53904;DHT22;39812;52.430;16.936;2023-10-19T15:45:10;8.40;98.30
53904;DHT22;39812;52.430;16.936;2023-10-19T15:47:37;8.30;98.50
53904;DHT22;39812;52.430;16.936;2023-10-19T15:50:03;8.30;98.70